Estación Meteorológica Peña el Pijo (Robertgarden) [ 07/19/18 09:38:29 CEST ]

Fecha Hora Presion(HPa) Temp (°C) Humedad % Rocio (°C) Viento ( m/s) Direccion Lluvia 1Hora(mm) Lluvia 24H(mm) LLuvia Total(mm)
2017-Dec-19 01:02:04 1013.500 4.1 72 -0.5         21.23
2017-Dec-19 02:01:51 1012.700 7.1 71 2.2         21.23
2017-Dec-19 03:01:42 1012.600 6.8 68 1.3         21.23
2017-Dec-19 04:01:43 1012.900 6.3 69 1.1         21.23
2017-Dec-19 05:03:10 1012.700 6.0 71 1.2         21.23
2017-Dec-19 06:01:51 1012.400 5.2 75 1.1         21.23
2017-Dec-19 07:01:52 1013.400 5.3 75 1.2         21.23
2017-Dec-19 08:01:53 1013.800 5.1 76 1.2         21.23
2017-Dec-19 09:01:53 1014.700 4.8 77 1.1         21.23
2017-Dec-19 10:02:05 1015.700 4.6 79 1.2         21.23
2017-Dec-19 11:01:48 1016.600 5.5 78 1.9         21.23
2017-Dec-19 12:01:55 1016.600 5.2 76 1.3         21.23
2017-Dec-19 13:01:38 1016.400 5.3 77 1.6         21.23
2017-Dec-19 14:01:44 1016.200 5.5 77 1.8         21.23
2017-Dec-19 15:01:47 1015.700 6.6 74 2.3         21.23
2017-Dec-19 16:01:59 1016.200 7.2 68 1.7         21.23
2017-Dec-19 17:01:39 1016.600 6.4 67 0.7         21.23
2017-Dec-19 18:01:54 1016.900 5.3 69 0.1         21.23
2017-Dec-19 19:01:49 1017.500 2.2 73 -2.2         21.23
2017-Dec-19 20:01:58 1018.100 0.9 77 -2.7         21.23
2017-Dec-19 21:01:51 1018.500 -1.0 79 -4.2         21.23
2017-Dec-19 22:01:48 1018.800 -1.3 81 -4.1         21.23
2017-Dec-19 23:01:40 1018.900 -2.2 82 -4.9         21.23

Temperatura Máxima:    Temperatura Mínima:-2°
Presión Máxima:1018.900 Hpa    Presión Mínima:1012.400 Hpa


Volver